createdAt,value
2022-08-23T00:00:30.329Z,21.2
2022-08-23T00:05:34.901Z,21.1
2022-08-23T00:10:39.431Z,21.2
2022-08-23T00:15:42.951Z,21
2022-08-23T00:20:47.501Z,20.8
2022-08-23T00:25:52.062Z,20.6
2022-08-23T00:30:55.570Z,20.3
2022-08-23T00:36:00.131Z,20.2
2022-08-23T00:41:04.651Z,20.1
2022-08-23T00:46:08.212Z,20.1
2022-08-23T00:51:12.739Z,20.1
2022-08-23T00:56:17.284Z,20.2
2022-08-23T01:01:21.851Z,20.2
2022-08-23T01:06:25.375Z,20
2022-08-23T01:11:29.908Z,19.8
2022-08-23T01:16:34.412Z,19.7
2022-08-23T01:21:38.001Z,19.7
2022-08-23T01:26:42.561Z,19.5
2022-08-23T01:31:47.070Z,19.3
2022-08-23T01:36:50.583Z,19.2
2022-08-23T01:41:55.155Z,19.1
2022-08-23T01:46:59.669Z,19
2022-08-23T01:52:03.231Z,19
2022-08-23T01:57:07.748Z,19.1
2022-08-23T02:02:12.289Z,19.2
2022-08-23T02:07:16.792Z,19.2
2022-08-23T02:12:20.354Z,19.3
2022-08-23T02:17:24.945Z,19.5
2022-08-23T02:22:29.457Z,19.5
2022-08-23T02:27:32.978Z,19.3
2022-08-23T02:32:37.556Z,19.3
2022-08-23T02:37:42.102Z,19.2
2022-08-23T02:42:45.635Z,19.2
2022-08-23T02:47:50.211Z,19.1
2022-08-23T02:52:53.707Z,19.1
2022-08-23T02:57:58.394Z,19.2
2022-08-23T03:03:02.790Z,19.3
2022-08-23T03:08:06.347Z,19.3
2022-08-23T03:13:10.884Z,19.4
2022-08-23T03:18:15.434Z,19.2
2022-08-23T03:23:18.976Z,19
2022-08-23T03:28:23.510Z,18.9
2022-08-23T03:33:27.989Z,18.9
2022-08-23T03:38:31.557Z,18.9
2022-08-23T03:43:36.124Z,18.8
2022-08-23T03:48:40.613Z,18.8
2022-08-23T03:53:45.178Z,18.7
2022-08-23T03:58:48.691Z,18.7
2022-08-23T04:03:53.236Z,18.6
2022-08-23T04:08:57.787Z,18.5
2022-08-23T04:14:01.306Z,18.4
2022-08-23T04:19:05.866Z,18.3
2022-08-23T04:24:10.382Z,18.2
2022-08-23T04:29:13.945Z,18.1
2022-08-23T04:34:20.232Z,18
2022-08-23T04:39:22.982Z,18.1
2022-08-23T04:44:26.576Z,18.1
2022-08-23T04:49:31.079Z,18
2022-08-23T04:54:35.629Z,18
2022-08-23T04:59:40.149Z,18.2
2022-08-23T05:04:43.736Z,18.4
2022-08-23T05:09:48.233Z,18.5
2022-08-23T05:14:52.751Z,18.7
2022-08-23T05:19:56.308Z,18.7
2022-08-23T05:25:00.855Z,18.5
2022-08-23T05:30:05.403Z,18.5
2022-08-23T05:35:08.939Z,18.6
2022-08-23T05:40:13.554Z,18.7
2022-08-23T05:45:21.163Z,18.8
2022-08-23T05:50:21.549Z,19.1
2022-08-23T05:55:34.824Z,19.3
2022-08-23T06:00:38.053Z,19.5
2022-08-23T06:05:35.169Z,19.7
2022-08-23T06:10:42.124Z,19.9
2022-08-23T06:15:43.258Z,20.5
2022-08-23T06:20:47.846Z,20.8
2022-08-23T06:25:51.336Z,20.7
2022-08-23T06:30:55.978Z,21.1
2022-08-23T06:36:00.384Z,21.2
2022-08-23T06:41:03.994Z,21.3
2022-08-23T06:46:08.527Z,21.8
2022-08-23T06:51:13.024Z,21.5
2022-08-23T06:56:16.540Z,21.8
2022-08-23T07:01:44.134Z,21.7
2022-08-23T07:06:24.684Z,21.9
2022-08-23T07:11:29.219Z,22.3
2022-08-23T07:16:33.777Z,22.5
2022-08-23T07:21:37.282Z,22.8
2022-08-23T07:26:41.811Z,22.9
2022-08-23T07:31:46.414Z,23.3
2022-08-23T07:36:49.910Z,24.1
2022-08-23T07:41:54.464Z,24.1
2022-08-23T07:47:00.662Z,23.8
2022-08-23T07:52:03.503Z,24.3
2022-08-23T07:57:07.069Z,24.3
2022-08-23T08:02:11.692Z,24.2
2022-08-23T08:07:21.111Z,25.1
2022-08-23T08:12:19.687Z,24.1
2022-08-23T08:17:27.399Z,25.4
2022-08-23T08:22:28.768Z,26.2
2022-08-23T08:27:32.311Z,26.2
2022-08-23T08:32:36.882Z,26.8
2022-08-23T08:37:41.376Z,26.5
2022-08-23T08:42:44.931Z,26.7
2022-08-23T08:47:49.468Z,27
2022-08-23T08:52:54.025Z,28.1
2022-08-23T08:57:58.628Z,28.1
2022-08-23T09:03:02.152Z,27.8
2022-08-23T09:08:06.646Z,28.7
2022-08-23T09:13:11.454Z,28.6
2022-08-23T09:18:14.738Z,28.2
2022-08-23T09:23:19.270Z,28.7
2022-08-23T09:28:23.810Z,28.6
2022-08-23T09:33:27.336Z,29.6
2022-08-23T09:38:31.906Z,29
2022-08-23T09:43:36.424Z,30.1
2022-08-23T09:48:40.000Z,32.4
2022-08-23T09:53:44.538Z,32.3
2022-08-23T09:58:49.083Z,31.5
2022-08-23T10:03:53.592Z,30.3
2022-08-23T10:08:57.156Z,29.8
2022-08-23T10:14:01.687Z,29.8
2022-08-23T10:19:06.275Z,30.5
2022-08-23T10:24:09.840Z,29.8
2022-08-23T10:29:14.370Z,30.8
2022-08-23T10:34:18.909Z,32.7
2022-08-23T10:39:22.432Z,32.8
2022-08-23T10:44:26.988Z,28.9
2022-08-23T10:49:31.514Z,31.3
2022-08-23T10:54:35.127Z,30.9
2022-08-23T10:59:39.600Z,32
2022-08-23T11:04:44.146Z,30
2022-08-23T11:09:48.830Z,32.3
2022-08-23T11:14:52.233Z,32.3
2022-08-23T11:19:55.839Z,30.4
2022-08-23T11:25:00.357Z,30.4
2022-08-23T11:30:04.915Z,32.4
2022-08-23T11:35:08.457Z,31.8
2022-08-23T11:40:17.990Z,33.7
2022-08-23T11:45:17.550Z,35.5
2022-08-23T11:50:22.064Z,34.2
2022-08-23T11:55:25.628Z,34.4
2022-08-23T12:00:30.168Z,34.8
2022-08-23T12:05:34.696Z,33.9
2022-08-23T12:10:38.284Z,30.9
2022-08-23T12:15:42.864Z,31.1
2022-08-23T12:20:48.565Z,31.5
2022-08-23T12:25:50.913Z,30.9
2022-08-23T12:30:55.537Z,32.4
2022-08-23T12:36:00.014Z,33.2
2022-08-23T12:41:03.568Z,30.5
2022-08-23T12:46:08.115Z,30.4
2022-08-23T12:51:12.620Z,30.8
2022-08-23T12:56:17.181Z,32.7
2022-08-23T13:01:20.819Z,32
2022-08-23T13:06:25.278Z,30.6
2022-08-23T13:11:29.797Z,32.5
2022-08-23T13:16:33.336Z,32.3
2022-08-23T13:21:39.914Z,31.3
2022-08-23T13:26:42.442Z,30.2
2022-08-23T13:31:46.016Z,30.5
2022-08-23T13:36:50.525Z,30.2
2022-08-23T13:41:55.050Z,30.8
2022-08-23T13:46:58.593Z,31.3
2022-08-23T13:52:33.379Z,31.8
2022-08-23T13:57:07.712Z,32.2
2022-08-23T14:02:12.230Z,32.3
2022-08-23T14:07:15.759Z,33.3
2022-08-23T14:12:21.279Z,31.5
2022-08-23T14:17:24.924Z,30.6
2022-08-23T14:22:28.395Z,31.3
2022-08-23T14:27:32.989Z,30.5
2022-08-23T14:32:37.483Z,31.2
2022-08-23T14:42:45.553Z,31.1
2022-08-23T14:47:50.120Z,31
2022-08-23T14:52:53.654Z,30.5
2022-08-23T14:57:58.164Z,29.8
2022-08-23T15:03:07.519Z,29.8
2022-08-23T15:08:07.240Z,30.2
2022-08-23T15:13:20.973Z,31.1
2022-08-23T15:18:15.353Z,32.1
2022-08-23T15:23:19.891Z,32.7
2022-08-23T15:28:23.413Z,32.9
2022-08-23T15:33:31.394Z,31.6
2022-08-23T15:38:31.547Z,32.6
2022-08-23T15:43:36.045Z,32.3
2022-08-23T15:48:40.594Z,32.3
2022-08-23T15:53:44.178Z,30.3
2022-08-23T15:58:48.689Z,30.6
2022-08-23T16:03:53.235Z,31.6
2022-08-23T16:08:56.759Z,31.3
2022-08-23T16:14:01.308Z,30.3
2022-08-23T16:19:05.891Z,32
2022-08-23T16:24:09.388Z,32.6
2022-08-23T16:29:13.925Z,31.3
2022-08-23T16:34:18.496Z,31.9
2022-08-23T16:39:22.022Z,32.3
2022-08-23T16:44:26.600Z,31.7
2022-08-23T16:49:31.140Z,31
2022-08-23T16:54:35.669Z,31.2
2022-08-23T16:59:40.663Z,31.8
2022-08-23T17:04:43.721Z,32.1
2022-08-23T17:09:48.295Z,31.1
2022-08-23T17:14:51.809Z,30.8
2022-08-23T17:19:56.374Z,30.8
2022-08-23T17:25:00.942Z,30.8
2022-08-23T17:30:04.458Z,30.5
2022-08-23T17:35:12.778Z,30
2022-08-23T17:40:13.573Z,29.7
2022-08-23T17:45:17.057Z,29.2
2022-08-23T17:50:21.633Z,29
2022-08-23T17:55:26.188Z,28.7
2022-08-23T18:00:30.664Z,28.3
2022-08-23T18:05:34.264Z,27.9
2022-08-23T18:10:38.774Z,27.8
2022-08-23T18:15:43.286Z,27.6
2022-08-23T18:20:46.825Z,27.3
2022-08-23T18:25:51.364Z,27.1
2022-08-23T18:30:55.914Z,26.7
2022-08-23T18:35:59.459Z,26.6
2022-08-23T18:41:04.018Z,26.4
2022-08-23T18:46:08.599Z,26.1
2022-08-23T18:51:17.951Z,25.9
2022-08-23T18:56:16.609Z,25.8
2022-08-23T19:01:21.232Z,25.7
2022-08-23T19:06:25.686Z,25.5
2022-08-23T19:11:29.235Z,25.3
2022-08-23T19:16:33.855Z,25.2
2022-08-23T19:21:38.283Z,25.1
2022-08-23T19:26:41.823Z,25.1
2022-08-23T19:31:46.447Z,25
2022-08-23T19:36:59.108Z,25
2022-08-23T19:41:54.468Z,25
2022-08-23T19:46:58.972Z,25
2022-08-23T19:52:02.531Z,24.9
2022-08-23T19:57:07.059Z,24.9
2022-08-23T20:02:11.623Z,24.8
2022-08-23T20:07:15.162Z,24.8
2022-08-23T20:12:19.693Z,24.6
2022-08-23T20:17:24.253Z,24.6
2022-08-23T20:22:27.788Z,24.5
2022-08-23T20:27:32.326Z,24.5
2022-08-23T20:32:36.836Z,24.4
2022-08-23T20:37:40.403Z,24.3
2022-08-23T20:42:44.923Z,24.2
2022-08-23T20:47:49.473Z,24.2
2022-08-23T20:52:53.985Z,24.2
2022-08-23T20:57:57.562Z,24.1
2022-08-23T21:03:02.232Z,23.9
2022-08-23T21:08:06.635Z,23.8
2022-08-23T21:13:10.640Z,23.9
2022-08-23T21:18:14.720Z,23.9
2022-08-23T21:23:19.255Z,23.9
2022-08-23T21:28:22.817Z,23.9
2022-08-23T21:33:27.307Z,23.9
2022-08-23T21:38:31.830Z,23.8
2022-08-23T21:43:35.450Z,23.7
2022-08-23T21:48:39.931Z,23.7
2022-08-23T21:53:44.448Z,23.8
2022-08-23T21:58:50.692Z,23.8
2022-08-23T22:03:56.795Z,23.7
2022-08-23T22:08:57.094Z,23.7
2022-08-23T22:14:01.594Z,23.8
2022-08-23T22:19:05.185Z,23.8
2022-08-23T22:24:09.706Z,23.8
2022-08-23T22:29:14.234Z,23.7
2022-08-23T22:34:17.817Z,23.6
2022-08-23T22:39:22.306Z,23.4
2022-08-23T22:44:26.826Z,23.2
2022-08-23T22:49:30.889Z,23.2
2022-08-23T22:54:34.961Z,23.1
2022-08-23T22:59:39.507Z,23
2022-08-23T23:04:43.998Z,22.8
2022-08-23T23:09:47.562Z,22.7
2022-08-23T23:14:52.082Z,22.5
2022-08-23T23:22:28.896Z,22.5
2022-08-23T23:27:32.471Z,22.2
2022-08-23T23:32:36.943Z,21.5
2022-08-23T23:37:41.479Z,21.8
2022-08-23T23:42:45.069Z,21.6
2022-08-23T23:47:49.606Z,21.4
2022-08-23T23:52:54.128Z,21.4
2022-08-23T23:57:57.694Z,21.3
